createdAt,value
2022-08-09T00:06:17.558Z,54.28
2022-08-09T00:12:30.456Z,55.70
2022-08-09T00:19:37.272Z,55.05
2022-08-09T00:26:42.813Z,55.56
2022-08-09T00:33:50.884Z,57.99
2022-08-09T00:40:54.073Z,58.32
2022-08-09T00:47:56.483Z,59.25
2022-08-09T00:55:03.180Z,60.55
2022-08-09T01:02:07.014Z,63.17
2022-08-09T01:09:15.313Z,64.30
2022-08-09T01:16:21.335Z,62.67
2022-08-09T01:24:03.107Z,64.85
2022-08-09T01:31:01.018Z,71.57
2022-08-09T01:38:10.034Z,72.48
2022-08-09T01:45:19.925Z,71.27
2022-08-09T01:52:25.384Z,75.84
2022-08-09T01:59:32.278Z,74.10
2022-08-09T02:06:54.408Z,76.30
2022-08-09T02:14:07.642Z,78.68
2022-08-09T02:21:17.283Z,81.03
2022-08-09T02:28:26.907Z,85.47
2022-08-09T02:36:01.902Z,87.79
2022-08-09T02:42:53.589Z,93.16
2022-08-09T02:50:01.777Z,95.60
2022-08-09T02:57:13.982Z,98.48
2022-08-09T03:04:28.888Z,95.91
2022-08-09T03:12:05.971Z,100.00
2022-08-09T03:18:55.886Z,100.00
2022-08-09T03:26:04.997Z,100.00
2022-08-09T03:33:17.413Z,100.00
2022-08-09T03:40:22.688Z,100.00
2022-08-09T03:47:27.057Z,100.00
2022-08-09T03:54:31.727Z,100.00
2022-08-09T04:01:35.855Z,100.00
2022-08-09T04:08:38.305Z,100.00
2022-08-09T04:16:20.589Z,100.00
2022-08-09T04:23:09.759Z,100.00
2022-08-09T04:30:13.551Z,100.00
2022-08-09T04:37:16.199Z,100.00
2022-08-09T04:44:22.875Z,97.80
2022-08-09T04:51:26.246Z,97.53
2022-08-09T04:58:29.777Z,93.79
2022-08-09T05:05:51.900Z,80.20
2022-08-09T05:12:56.629Z,83.16
2022-08-09T05:19:59.243Z,84.54
2022-08-09T05:27:02.989Z,64.43
2022-08-09T05:34:05.815Z,66.02
2022-08-09T05:41:08.378Z,70.88
2022-08-09T05:48:12.210Z,70.22
2022-08-09T05:55:20.867Z,71.49
2022-08-09T06:02:24.097Z,69.96
2022-08-09T06:09:54.741Z,62.57
2022-08-09T06:16:52.433Z,60.63
2022-08-09T06:24:01.582Z,57.96
2022-08-09T06:31:06.364Z,56.82
2022-08-09T06:38:08.560Z,59.00
2022-08-09T06:46:05.474Z,57.92
2022-08-09T06:52:34.950Z,55.28
2022-08-09T07:00:48.870Z,56.68
2022-08-09T07:07:00.044Z,55.44
2022-08-09T07:14:06.225Z,55.52
2022-08-09T07:21:08.648Z,53.79
2022-08-09T07:28:12.212Z,51.79
2022-08-09T07:35:23.259Z,51.51
2022-08-09T07:42:32.823Z,51.47
2022-08-09T07:49:35.157Z,51.85
2022-08-09T07:56:58.797Z,49.88
2022-08-09T08:04:01.251Z,50.42
2022-08-09T08:12:24.877Z,50.00
2022-08-09T08:18:27.098Z,49.78
2022-08-09T08:25:43.968Z,49.81
2022-08-09T08:32:53.668Z,49.55
2022-08-09T08:39:57.449Z,50.42
2022-08-09T08:47:05.201Z,49.59
2022-08-09T08:54:20.214Z,48.32
2022-08-09T09:01:25.016Z,45.41
2022-08-09T09:08:40.889Z,45.23
2022-08-09T09:15:49.148Z,42.28
2022-08-09T09:22:56.897Z,41.18
2022-08-09T09:30:19.282Z,39.87
2022-08-09T09:37:35.830Z,39.24
2022-08-09T09:44:40.853Z,40.46
2022-08-09T09:51:47.746Z,39.99
2022-08-09T09:58:53.556Z,38.75
2022-08-09T10:06:03.279Z,39.15
2022-08-09T10:13:06.425Z,38.67
2022-08-09T10:20:26.922Z,37.96
2022-08-09T10:27:38.600Z,36.85
2022-08-09T10:34:42.536Z,36.35
2022-08-09T10:41:46.207Z,35.31
2022-08-09T10:48:53.989Z,34.80
2022-08-09T10:56:22.586Z,34.36
2022-08-09T11:03:27.907Z,33.33
2022-08-09T11:11:00.888Z,32.61
2022-08-09T11:18:12.711Z,32.42
2022-08-09T11:25:25.986Z,30.96
2022-08-09T11:32:47.581Z,30.59
2022-08-09T11:40:02.982Z,30.54
2022-08-09T11:47:06.499Z,30.70
2022-08-09T11:54:28.802Z,30.16
2022-08-09T12:01:37.802Z,30.17
2022-08-09T12:08:58.882Z,31.61
2022-08-09T12:16:05.904Z,29.98
2022-08-09T12:23:56.618Z,28.82
2022-08-09T12:30:50.123Z,30.41
2022-08-09T12:37:55.576Z,30.68
2022-08-09T12:44:57.928Z,30.88
2022-08-09T12:52:03.612Z,29.60
2022-08-09T12:59:12.045Z,30.37
2022-08-09T13:06:24.771Z,30.29
2022-08-09T13:13:29.119Z,31.06
2022-08-09T13:21:20.596Z,31.20
2022-08-09T13:28:24.638Z,31.03
2022-08-09T13:36:23.455Z,31.32
2022-08-09T13:43:03.502Z,31.12
2022-08-09T13:50:17.899Z,31.85
2022-08-09T13:57:37.217Z,31.49
2022-08-09T14:04:59.794Z,31.23
2022-08-09T14:12:06.161Z,31.72
2022-08-09T14:19:20.511Z,31.61
2022-08-09T14:26:25.304Z,30.19
2022-08-09T14:33:38.083Z,31.87
2022-08-09T14:41:01.322Z,31.21
2022-08-09T14:48:04.525Z,30.71
2022-08-09T14:55:08.222Z,30.53
2022-08-09T15:02:10.518Z,30.84
2022-08-09T15:09:16.749Z,30.20
2022-08-09T15:16:43.115Z,30.90
2022-08-09T15:24:09.358Z,31.06
2022-08-09T15:31:14.746Z,30.94
2022-08-09T15:38:20.764Z,30.77
2022-08-09T15:45:29.296Z,31.00
2022-08-09T15:52:34.278Z,31.85
2022-08-09T15:59:37.467Z,31.29
2022-08-09T16:06:39.766Z,31.25
2022-08-09T16:14:03.574Z,32.36
2022-08-09T16:21:11.303Z,32.31
2022-08-09T16:28:13.811Z,31.83
2022-08-09T16:35:52.990Z,32.19
2022-08-09T16:42:45.438Z,31.99
2022-08-09T16:50:29.368Z,32.47
2022-08-09T16:57:11.765Z,32.14
2022-08-09T17:04:25.800Z,32.42
2022-08-09T17:11:41.570Z,32.83
2022-08-09T17:18:45.826Z,33.41
2022-08-09T17:25:53.046Z,33.51
2022-08-09T17:33:00.536Z,32.70
2022-08-09T17:40:06.380Z,33.09
2022-08-09T17:47:19.264Z,32.92
2022-08-09T17:54:29.720Z,33.86
2022-08-09T18:01:57.788Z,33.34
2022-08-09T18:08:55.953Z,33.86
2022-08-09T18:16:08.308Z,33.50
2022-08-09T18:24:08.582Z,34.59
2022-08-09T18:30:49.338Z,34.66
2022-08-09T18:37:54.698Z,35.46
2022-08-09T18:45:00.811Z,36.35
2022-08-09T18:52:04.038Z,36.46
2022-08-09T18:59:07.023Z,37.46
2022-08-09T19:06:14.641Z,37.50
2022-08-09T19:13:23.407Z,38.01
2022-08-09T19:20:41.841Z,38.17
2022-08-09T19:27:47.885Z,38.39
2022-08-09T19:34:54.707Z,39.17
2022-08-09T19:42:02.285Z,39.33
2022-08-09T19:50:10.286Z,39.59
2022-08-09T19:56:29.370Z,39.68
2022-08-09T20:04:17.798Z,40.19
2022-08-09T20:10:56.042Z,40.73
2022-08-09T20:17:59.988Z,40.88
2022-08-09T20:25:02.197Z,40.78
2022-08-09T20:32:30.536Z,41.60
2022-08-09T20:40:16.120Z,42.19
2022-08-09T20:46:53.895Z,41.81
2022-08-09T20:53:57.486Z,42.47
2022-08-09T21:01:14.042Z,42.17
2022-08-09T21:08:32.700Z,44.09
2022-08-09T21:15:51.892Z,43.20
2022-08-09T21:22:56.635Z,43.68
2022-08-09T21:29:59.818Z,43.88
2022-08-09T21:37:03.433Z,44.57
2022-08-09T21:44:32.526Z,44.98
2022-08-09T21:51:43.803Z,45.66
2022-08-09T21:58:47.598Z,45.19
2022-08-09T22:05:51.548Z,45.84
2022-08-09T22:12:53.743Z,46.02
2022-08-09T22:19:58.565Z,46.16
2022-08-09T22:27:02.167Z,46.73
2022-08-09T22:34:09.656Z,47.41
2022-08-09T22:41:19.257Z,48.07
2022-08-09T22:48:34.589Z,48.89
2022-08-09T22:56:07.185Z,49.20
2022-08-09T23:03:02.426Z,50.04
2022-08-09T23:10:14.654Z,50.53
2022-08-09T23:17:16.897Z,51.67
2022-08-09T23:24:20.431Z,52.04
2022-08-09T23:31:22.640Z,52.80
2022-08-09T23:38:24.841Z,54.20
2022-08-09T23:45:36.400Z,56.75
2022-08-09T23:52:39.804Z,59.04
